Time;durP1;ratioP1;P1;durP2;ratioP2;P2;SDS_P1;SDS_P2;PMS_P1;PMS_P2;Temp;Humidity;BMP_temperature;BMP_pressure;BME280_temperature;BME280_humidity;BME280_pressure;Samples;Min_cycle;Max_cycle;Signal;HPM_P1;HPM_P2
2022/05/25 00:01:21;;;;;;;6.90;4.13;;;15.10;69.10;;;;;;5056127;28;46283;-61
2022/05/25 00:03:47;;;;;;;5.90;3.57;;;15.10;69.10;;;;;;5048504;28;46295;-61
2022/05/25 00:06:13;;;;;;;4.60;3.80;;;15.10;69.20;;;;;;5055536;28;45826;-61
2022/05/25 00:08:40;;;;;;;7.07;4.37;;;15.10;69.20;;;;;;5049117;28;46331;-62
2022/05/25 00:11:07;;;;;;;12.37;4.60;;;15.10;69.20;;;;;;5051331;28;46848;-62
2022/05/25 00:13:33;;;;;;;5.67;4.40;;;15.00;69.10;;;;;;5053019;28;46465;-62
2022/05/25 00:15:58;;;;;;;9.40;4.80;;;15.10;69.10;;;;;;5046715;28;46619;-62
2022/05/25 00:18:24;;;;;;;8.10;4.57;;;15.00;69.00;;;;;;5052024;28;46520;-63
2022/05/25 00:20:50;;;;;;;6.27;4.60;;;15.00;69.20;;;;;;5047830;28;46260;-61
2022/05/25 00:23:15;;;;;;;7.50;4.80;;;15.00;69.00;;;;;;5058641;28;46289;-61
2022/05/25 00:25:41;;;;;;;8.60;5.23;;;15.10;69.10;;;;;;5055078;28;46318;-62
2022/05/25 00:28:09;;;;;;;6.60;4.70;;;15.10;69.10;;;;;;5060521;28;46380;-63
2022/05/25 00:30:35;;;;;;;7.20;4.90;;;15.10;69.20;;;;;;5051149;28;47109;-61
2022/05/25 00:33:01;;;;;;;10.83;4.67;;;15.00;69.10;;;;;;5058091;28;46382;-61
2022/05/25 00:35:29;;;;;;;10.13;4.60;;;15.10;69.10;;;;;;5057453;28;46370;-61
2022/05/25 00:37:55;;;;;;;10.73;4.40;;;15.10;69.10;;;;;;5059628;28;46462;-62
2022/05/25 00:40:33;;;;;;;5.07;4.30;;;15.10;69.10;;;;;;5057302;28;46474;-62
2022/05/25 00:42:59;;;;;;;7.70;4.80;;;15.10;69.10;;;;;;5048422;28;46363;-61
2022/05/25 00:45:25;;;;;;;8.53;4.57;;;15.10;69.10;;;;;;5054674;28;45856;-62
2022/05/25 00:47:52;;;;;;;9.03;4.87;;;15.10;69.10;;;;;;5050520;28;46505;-61
2022/05/25 00:50:22;;;;;;;7.80;4.37;;;15.10;69.10;;;;;;5050003;28;46497;-61
2022/05/25 00:52:49;;;;;;;7.30;4.23;;;15.10;69.10;;;;;;5054848;28;46380;-60
2022/05/25 00:55:26;;;;;;;5.97;4.20;;;15.10;69.10;;;;;;5047892;28;46361;-62
2022/05/25 00:57:55;;;;;;;6.67;4.73;;;15.10;69.10;;;;;;5050963;28;46732;-61
2022/05/25 01:00:26;;;;;;;8.00;4.37;;;15.10;69.10;;;;;;5049994;28;47258;-61
2022/05/25 01:03:02;;;;;;;6.70;4.60;;;15.10;69.10;;;;;;5051284;28;46472;-61
2022/05/25 01:05:37;;;;;;;8.33;4.60;;;15.10;69.30;;;;;;5053768;28;46396;-62
2022/05/25 01:08:25;;;;;;;5.93;4.60;;;15.00;69.40;;;;;;5052902;28;46366;-61
2022/05/25 01:11:16;;;;;;;6.33;4.43;;;15.00;69.80;;;;;;5052212;28;46416;-62
2022/05/25 01:13:49;;;;;;;7.63;4.30;;;15.00;69.80;;;;;;5050989;28;45829;-61
2022/05/25 01:16:33;;;;;;;5.53;4.33;;;15.00;69.80;;;;;;5052195;28;46338;-62
2022/05/25 01:19:11;;;;;;;14.83;4.40;;;15.00;69.90;;;;;;5051198;28;45893;-61
2022/05/25 01:21:42;;;;;;;6.03;5.13;;;15.00;70.00;;;;;;5049944;28;46311;-62
2022/05/25 01:24:23;;;;;;;6.20;4.70;;;14.90;70.00;;;;;;5053175;28;46316;-61
2022/05/25 01:27:26;;;;;;;10.43;5.03;;;14.90;70.20;;;;;;5049479;28;46440;-61
2022/05/25 01:29:57;;;;;;;7.67;4.47;;;14.90;70.40;;;;;;5008550;28;1225976;-61
2022/05/25 01:32:37;;;;;;;8.73;5.40;;;14.90;70.30;;;;;;5049212;28;47162;-62
2022/05/25 01:35:12;;;;;;;7.50;5.00;;;14.90;70.40;;;;;;5055425;28;46414;-61
2022/05/25 01:38:04;;;;;;;13.27;5.13;;;14.90;70.50;;;;;;5052561;28;46484;-62
2022/05/25 01:40:35;;;;;;;11.77;4.77;;;14.90;70.40;;;;;;5050543;28;46316;-62
2022/05/25 01:43:26;;;;;;;10.90;5.50;;;14.90;70.40;;;;;;5047740;28;47061;-61
2022/05/25 01:46:08;;;;;;;6.40;4.97;;;14.90;70.20;;;;;;5053939;28;46530;-62
2022/05/25 01:48:37;;;;;;;8.20;5.30;;;15.00;70.50;;;;;;5046994;28;46350;-59
2022/05/25 01:51:09;;;;;;;5.73;4.70;;;15.00;70.40;;;;;;5055000;28;45901;-62
2022/05/25 01:53:40;;;;;;;6.60;4.60;;;14.90;70.50;;;;;;5051139;28;46205;-62
2022/05/25 01:56:08;;;;;;;11.90;5.63;;;14.90;70.50;;;;;;5049599;28;46637;-61
2022/05/25 01:58:40;;;;;;;7.43;5.27;;;14.90;70.60;;;;;;5050223;28;46293;-62
2022/05/25 02:01:09;;;;;;;8.60;5.80;;;14.90;70.70;;;;;;5047963;28;46361;-62
2022/05/25 02:06:24;;;;;;;8.20;4.60;;;14.90;70.80;;;;;;5043998;28;46285;-62
2022/05/25 02:09:23;;;;;;;7.70;4.40;;;14.90;70.80;;;;;;5046189;28;46444;-60
2022/05/25 02:11:56;;;;;;;7.53;4.87;;;14.90;70.90;;;;;;5048108;28;46589;-63
2022/05/25 02:14:47;;;;;;;6.27;4.63;;;14.90;70.80;;;;;;5044941;28;46424;-61
2022/05/25 02:17:37;;;;;;;6.83;5.40;;;14.90;70.90;;;;;;5050328;28;46283;-59
2022/05/25 02:20:10;;;;;;;5.60;4.30;;;14.90;70.90;;;;;;5047860;28;46365;-62
2022/05/25 02:22:51;;;;;;;8.63;4.80;;;14.80;70.80;;;;;;5046972;28;46430;-61
2022/05/25 02:25:33;;;;;;;6.17;4.77;;;14.80;70.80;;;;;;5046923;28;46817;-61
2022/05/25 02:28:10;;;;;;;6.20;4.77;;;14.80;70.70;;;;;;5044434;28;46429;-60
2022/05/25 02:30:40;;;;;;;8.63;4.73;;;14.80;70.70;;;;;;5051505;28;46381;-60
2022/05/25 02:33:14;;;;;;;6.77;4.30;;;14.70;70.70;;;;;;5051608;28;46303;-61
2022/05/25 02:35:46;;;;;;;6.87;4.37;;;14.70;70.70;;;;;;5047558;28;46699;-61
2022/05/25 02:38:12;;;;;;;5.80;3.93;;;14.70;70.90;;;;;;5049994;28;47411;-60
2022/05/25 02:40:40;;;;;;;7.60;5.10;;;14.60;71.00;;;;;;5044203;28;46461;-62
2022/05/25 02:43:07;;;;;;;6.33;4.70;;;14.60;71.00;;;;;;5050418;28;46411;-61
2022/05/25 02:45:33;;;;;;;7.07;5.03;;;14.60;71.10;;;;;;5048923;28;46524;-61
2022/05/25 02:47:59;;;;;;;8.33;4.83;;;14.50;71.00;;;;;;5051318;28;46364;-61
2022/05/25 02:50:25;;;;;;;11.73;4.80;;;14.60;71.00;;;;;;5053027;28;46398;-61
2022/05/25 02:52:51;;;;;;;7.10;5.00;;;14.60;70.90;;;;;;5051240;28;46576;-62
2022/05/25 02:55:16;;;;;;;7.30;4.60;;;14.60;70.90;;;;;;5051555;28;47727;-61
2022/05/25 02:57:42;;;;;;;6.80;4.93;;;14.60;70.90;;;;;;5051654;28;46805;-61
2022/05/25 03:00:09;;;;;;;7.87;5.40;;;14.60;70.70;;;;;;5050984;28;46405;-60
2022/05/25 03:02:36;;;;;;;7.17;4.80;;;14.60;70.70;;;;;;5054629;28;46766;-61
2022/05/25 03:05:03;;;;;;;7.77;5.40;;;14.60;70.70;;;;;;5050568;28;46655;-61
2022/05/25 03:07:29;;;;;;;6.47;4.53;;;14.60;70.50;;;;;;5052213;28;46431;-61
2022/05/25 03:09:55;;;;;;;8.37;5.70;;;14.50;70.60;;;;;;5051890;28;46437;-61
2022/05/25 03:12:20;;;;;;;7.73;5.10;;;14.50;70.50;;;;;;5048331;28;46331;-61
2022/05/25 03:14:47;;;;;;;9.27;5.37;;;14.40;70.60;;;;;;5054818;28;46483;-61
2022/05/25 03:17:14;;;;;;;10.53;5.00;;;14.40;70.80;;;;;;5045994;28;46393;-61
2022/05/25 03:19:49;;;;;;;10.73;5.60;;;14.30;70.80;;;;;;5051402;28;46473;-61
2022/05/25 03:22:15;;;;;;;17.83;5.60;;;14.30;71.00;;;;;;5046625;28;46409;-61
2022/05/25 03:24:41;;;;;;;13.90;6.20;;;14.30;70.90;;;;;;5050026;28;46504;-61
2022/05/25 03:27:06;;;;;;;7.97;5.30;;;14.30;70.80;;;;;;5051601;28;46568;-60
2022/05/25 03:29:32;;;;;;;7.00;5.30;;;14.40;70.80;;;;;;5042957;28;46553;-61
2022/05/25 03:31:59;;;;;;;7.40;5.47;;;14.40;70.90;;;;;;5048253;28;46465;-61
2022/05/25 03:34:25;;;;;;;8.97;5.80;;;14.30;70.70;;;;;;5057376;28;46477;-61
2022/05/25 03:36:54;;;;;;;9.70;5.30;;;14.30;70.80;;;;;;5052097;28;46423;-62
2022/05/25 03:39:22;;;;;;;10.20;6.30;;;14.40;70.90;;;;;;5050535;28;46429;-61
2022/05/25 03:41:51;;;;;;;9.07;5.60;;;14.30;72.10;;;;;;5051584;28;46388;-61
2022/05/25 03:44:21;;;;;;;9.17;5.60;;;14.30;70.90;;;;;;5049279;28;46908;-60
2022/05/25 03:46:47;;;;;;;16.10;7.00;;;14.30;70.90;;;;;;5054215;28;46577;-61
2022/05/25 03:49:13;;;;;;;12.53;6.60;;;14.30;71.10;;;;;;5047047;28;46414;-62
2022/05/25 03:51:38;;;;;;;10.90;7.40;;;14.30;71.20;;;;;;5053381;28;46373;-61
2022/05/25 03:54:04;;;;;;;14.63;6.77;;;14.30;71.30;;;;;;5050854;28;46298;-61
2022/05/25 03:56:29;;;;;;;10.57;7.50;;;14.30;71.20;;;;;;5050567;28;46437;-61
2022/05/25 03:58:55;;;;;;;10.30;6.27;;;14.30;71.50;;;;;;5050288;28;46465;-62
2022/05/25 04:01:20;;;;;;;8.20;6.60;;;14.20;71.60;;;;;;5047066;28;46458;-62
2022/05/25 04:03:46;;;;;;;12.60;6.63;;;14.20;71.50;;;;;;5051456;28;46286;-61
2022/05/25 04:06:12;;;;;;;8.47;6.67;;;14.20;71.60;;;;;;5045551;28;46442;-61
2022/05/25 04:08:38;;;;;;;11.43;7.67;;;14.30;71.60;;;;;;5051977;28;46378;-63
2022/05/25 04:11:03;;;;;;;11.30;6.60;;;14.30;71.60;;;;;;5047855;28;46439;-62
2022/05/25 04:13:29;;;;;;;9.73;6.90;;;14.30;71.70;;;;;;5051660;28;46175;-60
2022/05/25 04:15:54;;;;;;;9.93;7.00;;;14.30;71.80;;;;;;5047706;28;46361;-62
2022/05/25 04:18:20;;;;;;;11.23;7.20;;;14.20;71.90;;;;;;5045225;28;45780;-60
2022/05/25 04:20:46;;;;;;;17.13;8.40;;;14.30;71.80;;;;;;5052873;28;46465;-63
2022/05/25 04:23:11;;;;;;;14.23;8.13;;;14.30;71.70;;;;;;5044753;28;46335;-62
2022/05/25 04:25:40;;;;;;;15.37;8.47;;;14.40;71.60;;;;;;5053802;28;46346;-60
2022/05/25 04:28:06;;;;;;;13.40;8.20;;;14.40;71.50;;;;;;5049942;28;46404;-61
2022/05/25 04:30:31;;;;;;;10.60;8.17;;;14.40;71.70;;;;;;5052174;28;46545;-60
2022/05/25 04:32:57;;;;;;;12.03;8.57;;;14.30;72.00;;;;;;5051458;28;46419;-61
2022/05/25 04:35:24;;;;;;;9.03;7.30;;;14.30;72.40;;;;;;5050293;28;46425;-61
2022/05/25 04:37:52;;;;;;;8.50;7.03;;;14.10;73.10;;;;;;5054046;28;46832;-61
2022/05/25 04:40:32;;;;;;;7.93;6.73;;;13.90;73.80;;;;;;5046117;28;46390;-61
2022/05/25 04:43:01;;;;;;;14.33;7.13;;;13.70;74.80;;;;;;5054512;28;46448;-61
2022/05/25 04:45:28;;;;;;;15.20;7.10;;;13.60;75.80;;;;;;5047344;28;46414;-62
2022/05/25 04:47:55;;;;;;;9.20;6.30;;;13.50;75.70;;;;;;5052202;28;46491;-60
2022/05/25 04:50:22;;;;;;;9.53;7.17;;;13.50;76.60;;;;;;5055868;28;46563;-62
2022/05/25 04:52:48;;;;;;;11.33;7.27;;;13.40;76.60;;;;;;5056285;28;46408;-61
2022/05/25 04:57:59;;;;;;;10.23;6.73;;;13.40;76.70;;;;;;5056683;28;46441;-61
2022/05/25 05:00:26;;;;;;;9.20;6.67;;;13.50;76.40;;;;;;5047493;28;46428;-61
2022/05/25 05:02:52;;;;;;;9.23;7.00;;;13.50;76.30;;;;;;5054125;28;46344;-60
2022/05/25 05:05:18;;;;;;;8.70;6.60;;;13.50;76.60;;;;;;5047881;28;46401;-61
2022/05/25 05:07:45;;;;;;;8.03;4.60;;;13.50;76.30;;;;;;5051286;28;46552;-61
2022/05/25 05:10:12;;;;;;;7.37;4.50;;;13.40;76.60;;;;;;5050175;28;46642;-61
2022/05/25 05:12:39;;;;;;;4.20;3.57;;;13.20;76.90;;;;;;5056694;28;47199;-61
2022/05/25 05:15:05;;;;;;;9.03;3.90;;;13.20;77.10;;;;;;5051922;28;46396;-61
2022/05/25 05:17:30;;;;;;;7.73;3.50;;;13.20;77.00;;;;;;5057561;28;46398;-60
2022/05/25 05:19:56;;;;;;;8.10;3.90;;;13.10;76.80;;;;;;5055528;28;46471;-62
2022/05/25 05:22:22;;;;;;;5.50;3.50;;;13.00;76.80;;;;;;5052920;28;47421;-62
2022/05/25 05:24:47;;;;;;;5.70;4.07;;;13.00;76.80;;;;;;5057821;28;46701;-62
2022/05/25 05:27:13;;;;;;;6.57;3.87;;;13.00;76.40;;;;;;5051128;28;46334;-61
2022/05/25 05:29:39;;;;;;;5.10;3.80;;;13.20;75.90;;;;;;5054325;28;45812;-61
2022/05/25 05:32:05;;;;;;;4.60;3.50;;;13.20;75.70;;;;;;5055030;28;47075;-62
2022/05/25 05:34:30;;;;;;;7.07;3.60;;;13.20;75.40;;;;;;5050807;28;46425;-61
2022/05/25 05:37:12;;;;;;;13.70;3.80;;;13.30;75.30;;;;;;5056485;28;46646;-61
2022/05/25 05:39:42;;;;;;;6.73;3.60;;;13.20;75.20;;;;;;5050763;28;45842;-62
2022/05/25 05:42:14;;;;;;;4.47;3.27;;;13.30;75.20;;;;;;5055732;28;46340;-61
2022/05/25 05:44:48;;;;;;;6.60;3.27;;;13.40;74.70;;;;;;5051447;28;46324;-61
2022/05/25 05:47:19;;;;;;;4.70;3.40;;;13.30;74.80;;;;;;5051618;28;46488;-61
2022/05/25 05:49:45;;;;;;;9.30;3.13;;;13.30;74.70;;;;;;5054199;28;46405;-62
2022/05/25 05:52:11;;;;;;;5.63;3.90;;;13.40;74.50;;;;;;5048271;28;47006;-61
2022/05/25 05:54:38;;;;;;;6.20;3.33;;;13.50;74.10;;;;;;5056895;28;46302;-62
2022/05/25 05:57:04;;;;;;;5.00;3.03;;;13.60;73.80;;;;;;5046908;28;46381;-62
2022/05/25 05:59:30;;;;;;;7.63;3.40;;;13.70;73.40;;;;;;5048781;28;46244;-61
2022/05/25 06:01:56;;;;;;;10.00;3.20;;;13.80;73.30;;;;;;5055752;28;46639;-61
2022/05/25 06:04:22;;;;;;;5.17;3.40;;;13.80;73.50;;;;;;5058724;28;46031;-62
2022/05/25 06:06:49;;;;;;;6.03;3.77;;;13.80;73.40;;;;;;5053304;28;45937;-62
2022/05/25 06:09:15;;;;;;;6.70;3.17;;;13.80;73.50;;;;;;5057963;28;46887;-62
2022/05/25 06:11:41;;;;;;;11.13;3.30;;;13.80;73.50;;;;;;5051044;28;46374;-62
2022/05/25 06:14:11;;;;;;;7.03;3.90;;;13.80;73.30;;;;;;5053447;28;46338;-62
2022/05/25 06:19:27;;;;;;;3.03;2.23;;;13.50;74.20;;;;;;5053309;28;46481;-61
2022/05/25 06:22:01;;;;;;;4.57;2.17;;;13.50;74.20;;;;;;5051710;28;47000;-62
2022/05/25 06:24:29;;;;;;;3.03;1.93;;;13.30;74.10;;;;;;5051169;28;46525;-61
2022/05/25 06:26:55;;;;;;;6.43;2.23;;;13.30;74.10;;;;;;5044928;28;46326;-61
2022/05/25 06:29:21;;;;;;;3.57;2.27;;;13.40;73.80;;;;;;5048386;28;46381;-62
2022/05/25 06:31:47;;;;;;;3.40;2.10;;;13.50;73.40;;;;;;5051768;28;46610;-62
2022/05/25 06:34:13;;;;;;;3.07;2.17;;;13.70;72.50;;;;;;5047046;28;46761;-60
2022/05/25 06:36:38;;;;;;;4.07;2.17;;;14.00;71.90;;;;;;5050421;28;46612;-60
2022/05/25 06:39:04;;;;;;;3.93;2.27;;;14.20;71.30;;;;;;5050993;28;46403;-60
2022/05/25 06:41:30;;;;;;;3.30;2.30;;;14.50;70.60;;;;;;5049188;28;47175;-62
2022/05/25 06:43:56;;;;;;;3.50;2.30;;;14.80;69.80;;;;;;5051089;28;46354;-61
2022/05/25 06:46:22;;;;;;;3.43;1.90;;;14.90;69.40;;;;;;5049443;28;46225;-60
2022/05/25 06:48:49;;;;;;;3.93;2.10;;;15.00;69.00;;;;;;5054243;28;46571;-62
2022/05/25 06:51:25;;;;;;;3.27;1.87;;;15.20;68.40;;;;;;5046249;28;46280;-61
2022/05/25 06:53:50;;;;;;;2.90;1.97;;;15.40;67.80;;;;;;5051469;28;46291;-59
2022/05/25 06:56:17;;;;;;;4.17;1.67;;;15.70;67.20;;;;;;5050396;28;46395;-60
2022/05/25 06:58:43;;;;;;;4.73;1.70;;;15.90;66.60;;;;;;5051163;28;46607;-62
2022/05/25 07:01:08;;;;;;;3.43;1.80;;;16.10;66.20;;;;;;5050685;28;46468;-61
2022/05/25 07:03:34;;;;;;;3.80;2.30;;;16.30;65.60;;;;;;5045230;28;46431;-62
2022/05/25 07:06:05;;;;;;;5.07;2.37;;;16.50;64.90;;;;;;5051833;28;46538;-62
2022/05/25 07:08:31;;;;;;;3.13;1.63;;;16.70;64.50;;;;;;5047025;28;46434;-61
2022/05/25 07:10:56;;;;;;;3.90;1.90;;;16.70;64.30;;;;;;5053249;28;46409;-62
2022/05/25 07:13:22;;;;;;;3.87;2.10;;;16.70;64.20;;;;;;5046373;28;46659;-62
2022/05/25 07:15:49;;;;;;;3.60;1.63;;;16.50;64.30;;;;;;5047642;28;46399;-62
2022/05/25 07:18:14;;;;;;;3.40;1.40;;;16.50;64.50;;;;;;5051447;28;46463;-62
2022/05/25 07:20:40;;;;;;;5.40;2.20;;;16.50;64.30;;;;;;5057520;28;46102;-62
2022/05/25 07:23:06;;;;;;;2.90;1.70;;;16.60;64.20;;;;;;5047236;28;46436;-61
2022/05/25 07:25:31;;;;;;;4.97;2.30;;;16.70;64.10;;;;;;5055999;28;46813;-61
2022/05/25 07:27:57;;;;;;;4.80;1.90;;;16.90;64.10;;;;;;5048747;28;46805;-63
2022/05/25 07:30:23;;;;;;;4.30;2.10;;;17.10;63.80;;;;;;5049481;28;47358;-62
2022/05/25 07:32:48;;;;;;;3.33;1.93;;;17.10;63.70;;;;;;5050431;28;46302;-61
2022/05/25 07:35:16;;;;;;;4.30;1.80;;;17.30;63.40;;;;;;5049732;28;46451;-62
2022/05/25 07:37:45;;;;;;;4.03;1.60;;;17.30;63.10;;;;;;5049038;28;47430;-62
2022/05/25 07:40:19;;;;;;;3.90;1.37;;;17.30;63.20;;;;;;5054191;28;46692;-61
2022/05/25 07:42:50;;;;;;;3.47;1.70;;;17.30;62.90;;;;;;5049957;28;46375;-59
2022/05/25 07:45:15;;;;;;;4.40;1.60;;;17.50;62.30;;;;;;5053787;28;46402;-62
2022/05/25 07:47:41;;;;;;;3.53;1.67;;;17.60;62.20;;;;;;5054889;28;46369;-62
2022/05/25 07:50:08;;;;;;;2.50;1.40;;;17.90;61.80;;;;;;5050912;28;46616;-62
2022/05/25 07:52:38;;;;;;;2.50;1.37;;;17.80;61.10;;;;;;5055839;28;45873;-60
2022/05/25 07:55:05;;;;;;;3.37;1.23;;;17.60;61.50;;;;;;5050183;28;46444;-61
2022/05/25 07:57:31;;;;;;;4.00;1.60;;;17.30;61.70;;;;;;5053127;28;46671;-62
2022/05/25 07:59:57;;;;;;;5.20;1.20;;;17.20;62.00;;;;;;5056036;28;46382;-61
2022/05/25 08:08:04;;;;;;;2.30;1.37;;;17.70;61.80;;;;;;5052749;28;46303;-62
2022/05/25 08:10:30;;;;;;;3.20;1.33;;;17.90;59.80;;;;;;5054579;28;47212;-62
2022/05/25 08:12:57;;;;;;;2.07;1.20;;;18.20;59.20;;;;;;5052448;28;46433;-62
2022/05/25 08:15:24;;;;;;;3.50;1.57;;;18.30;59.30;;;;;;5053169;28;46405;-62
2022/05/25 08:17:51;;;;;;;2.63;1.30;;;18.50;58.40;;;;;;5056182;28;46259;-62
2022/05/25 08:20:18;;;;;;;3.57;1.33;;;18.80;57.80;;;;;;5048228;28;47037;-61
2022/05/25 08:22:44;;;;;;;3.73;1.33;;;19.10;56.60;;;;;;5054253;28;46461;-61
2022/05/25 08:25:13;;;;;;;4.90;1.13;;;19.40;55.90;;;;;;5052653;28;46459;-62
2022/05/25 08:27:39;;;;;;;4.07;1.30;;;19.40;55.50;;;;;;5050844;28;46564;-62
2022/05/25 08:30:10;;;;;;;2.80;1.13;;;19.50;55.40;;;;;;5051110;28;46759;-62
2022/05/25 08:32:36;;;;;;;2.07;1.10;;;19.60;54.70;;;;;;5060473;28;46407;-61
2022/05/25 08:35:03;;;;;;;2.67;1.10;;;19.60;54.20;;;;;;5054961;28;45812;-62
2022/05/25 08:37:29;;;;;;;2.40;1.00;;;19.60;54.30;;;;;;5055720;28;46424;-60
2022/05/25 08:39:54;;;;;;;6.20;1.70;;;19.10;54.70;;;;;;5053824;28;46346;-60
2022/05/25 08:42:23;;;;;;;3.60;1.33;;;19.20;54.40;;;;;;5055133;28;46430;-62
2022/05/25 08:44:51;;;;;;;2.70;1.00;;;19.50;53.60;;;;;;5057659;28;46452;-62
2022/05/25 08:47:17;;;;;;;2.20;0.90;;;19.80;52.80;;;;;;5051485;28;46505;-62
2022/05/25 08:49:45;;;;;;;4.00;1.60;;;19.90;52.20;;;;;;5054445;28;47442;-61
2022/05/25 08:52:30;;;;;;;2.87;1.20;;;19.70;50.60;;;;;;5051168;28;46359;-60
2022/05/25 08:55:00;;;;;;;3.43;1.27;;;19.10;50.50;;;;;;5050142;28;46785;-59
2022/05/25 08:57:37;;;;;;;3.23;1.03;;;19.30;50.50;;;;;;5056059;28;45930;-61
2022/05/25 09:00:08;;;;;;;2.77;1.20;;;19.30;49.70;;;;;;5065590;28;49321;-59
2022/05/25 09:02:43;;;;;;;2.10;0.90;;;19.50;49.90;;;;;;5067346;28;46464;-61
2022/05/25 09:05:28;;;;;;;2.30;1.00;;;19.80;48.10;;;;;;5053706;28;46811;-60
2022/05/25 09:08:05;;;;;;;4.60;1.20;;;19.60;48.00;;;;;;5048185;28;46189;-62
2022/05/25 09:10:39;;;;;;;2.93;0.90;;;19.80;48.20;;;;;;5052867;28;46626;-61
2022/05/25 09:13:11;;;;;;;5.10;1.10;;;20.10;47.70;;;;;;5050775;28;46446;-60
2022/05/25 09:16:15;;;;;;;4.63;1.00;;;20.10;47.70;;;;;;5053375;28;46291;-63
2022/05/25 09:18:33;;;;;;;3.10;1.10;;;20.20;47.80;;;;;;5048277;28;46560;-60
2022/05/25 09:21:03;;;;;;;2.43;1.20;;;20.10;47.30;;;;;;5053856;28;46519;-60
2022/05/25 09:23:28;;;;;;;3.93;1.10;;;20.20;47.00;;;;;;5053274;28;45715;-61
2022/05/25 09:25:55;;;;;;;4.90;2.53;;;20.20;47.30;;;;;;5045110;28;46250;-62
2022/05/25 09:28:24;;;;;;;2.40;1.10;;;20.40;46.70;;;;;;5053247;28;46337;-61
2022/05/25 09:30:53;;;;;;;3.23;1.20;;;20.60;46.10;;;;;;5051383;28;47168;-62
2022/05/25 09:33:23;;;;;;;3.23;1.30;;;21.00;45.00;;;;;;5053263;28;45739;-61
2022/05/25 09:35:58;;;;;;;3.87;1.53;;;21.20;44.00;;;;;;5065793;28;46708;-62
2022/05/25 09:38:45;;;;;;;3.80;1.10;;;21.30;43.00;;;;;;5051771;28;46404;-62
2022/05/25 09:41:14;;;;;;;3.80;1.23;;;21.50;42.40;;;;;;5049381;28;47161;-63
2022/05/25 09:43:40;;;;;;;2.80;1.10;;;21.50;42.40;;;;;;5047547;28;46365;-62
2022/05/25 09:46:22;;;;;;;6.10;1.10;;;21.30;42.20;;;;;;5053225;28;46384;-59
2022/05/25 09:48:51;;;;;;;2.30;1.10;;;21.40;42.20;;;;;;5057679;28;46381;-59
2022/05/25 09:51:24;;;;;;;2.20;1.00;;;21.80;41.70;;;;;;5048225;28;46302;-61
2022/05/25 09:54:01;;;;;;;5.03;1.20;;;22.10;41.20;;;;;;5054712;28;46373;-62
2022/05/25 09:56:43;;;;;;;3.60;1.10;;;22.20;40.10;;;;;;5049350;28;46921;-62
2022/05/25 09:59:21;;;;;;;5.90;1.40;;;22.30;39.80;;;;;;5050409;28;46496;-65
2022/05/25 10:01:48;;;;;;;3.33;1.30;;;22.20;40.00;;;;;;5055320;28;48280;-62
2022/05/25 10:04:39;;;;;;;2.20;1.00;;;22.00;40.50;;;;;;5053084;28;46668;-62
2022/05/25 10:07:31;;;;;;;6.00;1.33;;;21.90;40.30;;;;;;5048956;28;46385;-62
2022/05/25 10:10:07;;;;;;;2.93;1.10;;;21.80;40.60;;;;;;5051754;28;46398;-61
2022/05/25 10:12:40;;;;;;;3.37;1.33;;;21.50;42.00;;;;;;5052608;28;46254;-61
2022/05/25 10:15:11;;;;;;;3.77;1.10;;;21.50;40.80;;;;;;5055836;28;46925;-62
2022/05/25 10:17:40;;;;;;;3.27;1.37;;;21.80;40.30;;;;;;5052055;28;46751;-63
2022/05/25 10:20:28;;;;;;;2.73;1.27;;;21.80;40.20;;;;;;5055594;28;45890;-62
2022/05/25 10:23:05;;;;;;;4.97;1.50;;;21.70;40.60;;;;;;5050824;28;46207;-63
2022/05/25 10:25:41;;;;;;;4.90;1.80;;;21.70;40.20;;;;;;5051704;28;46413;-62
2022/05/25 10:28:26;;;;;;;3.03;1.23;;;21.60;40.30;;;;;;5054410;28;46365;-62
2022/05/25 10:36:49;;;;;;;3.07;1.20;;;21.50;40.60;;;;;;5050455;28;46347;-61
2022/05/25 10:39:44;;;;;;;3.37;1.20;;;21.40;41.30;;;;;;5054328;28;46356;-63
2022/05/25 10:42:14;;;;;;;2.00;1.10;;;21.80;41.40;;;;;;5047083;28;46451;-61
2022/05/25 10:45:06;;;;;;;4.70;1.23;;;22.20;40.50;;;;;;5051332;28;46789;-61
2022/05/25 10:47:38;;;;;;;3.17;1.23;;;22.20;38.80;;;;;;5050864;28;46406;-61
2022/05/25 10:50:11;;;;;;;3.13;1.20;;;22.00;38.70;;;;;;5049233;28;45872;-61
2022/05/25 10:52:43;;;;;;;2.50;1.20;;;22.00;38.60;;;;;;5049935;28;46346;-61
2022/05/25 10:55:09;;;;;;;4.17;1.50;;;22.30;38.10;;;;;;5047483;28;47104;-61
2022/05/25 10:57:55;;;;;;;2.40;1.30;;;22.50;37.50;;;;;;5051885;28;46450;-62
2022/05/25 11:00:29;;;;;;;4.03;1.50;;;22.70;36.50;;;;;;5042560;28;45860;-63
2022/05/25 11:03:31;;;;;;;3.43;1.30;;;22.90;36.70;;;;;;5051368;28;46513;-61
2022/05/25 11:06:17;;;;;;;9.80;1.60;;;23.10;35.00;;;;;;5039344;28;48135;-62
2022/05/25 11:09:16;;;;;;;3.43;1.30;;;23.10;35.80;;;;;;5049424;28;46528;-62
2022/05/25 11:12:15;;;;;;;4.00;1.50;;;23.30;34.80;;;;;;5052916;28;46387;-61
2022/05/25 11:14:58;;;;;;;5.60;1.67;;;23.40;34.10;;;;;;5048488;28;46353;-61
2022/05/25 11:17:56;;;;;;;7.57;1.40;;;23.50;33.80;;;;;;5051977;28;47120;-61
2022/05/25 11:20:28;;;;;;;2.77;1.17;;;23.30;34.20;;;;;;5047541;28;46401;-61
2022/05/25 11:23:10;;;;;;;2.47;0.97;;;23.10;34.20;;;;;;5051549;28;46302;-61
2022/05/25 11:25:57;;;;;;;5.87;1.27;;;23.20;33.90;;;;;;5050453;28;46602;-62
2022/05/25 11:28:35;;;;;;;4.50;1.00;;;23.50;32.70;;;;;;5051216;28;47132;-61
2022/05/25 11:31:25;;;;;;;4.37;1.57;;;23.40;33.00;;;;;;5054251;28;46314;-62
2022/05/25 11:33:51;;;;;;;4.93;1.50;;;23.40;32.60;;;;;;5051056;28;46386;-61
2022/05/25 11:36:42;;;;;;;3.23;1.40;;;23.60;32.40;;;;;;5052546;28;46638;-61
2022/05/25 11:39:11;;;;;;;2.97;1.20;;;23.80;31.30;;;;;;5054064;28;47480;-61
2022/05/25 11:41:48;;;;;;;2.30;1.10;;;23.90;31.10;;;;;;5050469;28;46557;-60
2022/05/25 11:44:43;;;;;;;2.40;1.10;;;24.10;29.60;;;;;;5051261;28;46379;-60
2022/05/25 11:48:05;;;;;;;2.97;1.10;;;24.40;28.90;;;;;;5050469;28;46568;-62
2022/05/25 11:50:39;;;;;;;4.77;1.50;;;24.60;28.50;;;;;;5000727;28;46459;-62
2022/05/25 11:53:37;;;;;;;3.10;0.90;;;24.80;28.70;;;;;;5045999;28;46554;-60
2022/05/25 11:56:41;;;;;;;2.97;1.33;;;24.10;28.00;;;;;;5039124;28;46415;-60
2022/05/25 11:59:13;;;;;;;2.80;1.20;;;23.70;28.60;;;;;;5047831;28;46745;-62
2022/05/25 12:02:12;;;;;;;3.37;1.70;;;23.50;29.20;;;;;;5051984;28;46454;-61
2022/05/25 12:04:45;;;;;;;3.27;1.63;;;23.50;29.30;;;;;;5050986;28;46605;-61
2022/05/25 12:07:33;;;;;;;9.17;1.50;;;23.70;29.50;;;;;;5052990;28;46391;-61
2022/05/25 12:10:17;;;;;;;2.80;1.03;;;23.70;29.50;;;;;;5051665;28;46283;-61
2022/05/25 12:13:03;;;;;;;4.90;1.87;;;23.80;29.20;;;;;;5050907;28;49158;-60
2022/05/25 12:16:05;;;;;;;2.43;1.17;;;23.70;28.30;;;;;;5051668;28;45888;-62
2022/05/25 12:18:39;;;;;;;3.77;1.60;;;23.20;27.50;;;;;;5051631;28;45932;-61
2022/05/25 12:21:15;;;;;;;14.27;3.27;;;22.80;28.10;;;;;;5053877;28;46427;-60
2022/05/25 12:23:49;;;;;;;4.20;1.60;;;22.70;27.70;;;;;;5054120;28;46462;-62
2022/05/25 12:26:22;;;;;;;3.73;1.13;;;23.00;27.50;;;;;;5052127;28;46426;-62
2022/05/25 12:28:49;;;;;;;2.60;1.17;;;22.80;28.50;;;;;;5051196;28;46560;-62
2022/05/25 12:31:22;;;;;;;5.90;1.30;;;22.90;28.30;;;;;;5059734;28;46541;-62
2022/05/25 12:33:49;;;;;;;5.43;1.10;;;23.10;27.90;;;;;;5051928;28;46428;-60
2022/05/25 12:36:16;;;;;;;5.37;1.10;;;23.20;27.80;;;;;;5056983;28;45825;-61
2022/05/25 12:38:42;;;;;;;2.97;1.00;;;23.30;27.70;;;;;;5050664;28;46452;-61
2022/05/25 12:41:29;;;;;;;2.53;1.10;;;22.80;27.40;;;;;;5050536;28;46537;-62
2022/05/25 12:43:57;;;;;;;3.70;1.20;;;22.80;27.70;;;;;;5051919;28;46309;-65
2022/05/25 12:49:48;;;;;;;3.33;1.33;;;22.90;27.50;;;;;;5053651;28;46389;-62
2022/05/25 12:52:29;;;;;;;2.20;1.00;;;22.80;27.90;;;;;;5051413;28;46613;-63
2022/05/25 12:55:13;;;;;;;3.40;1.20;;;22.90;27.90;;;;;;5055937;28;47289;-62
2022/05/25 12:58:05;;;;;;;2.57;1.10;;;23.00;28.20;;;;;;5055946;28;46425;-62
2022/05/25 13:00:33;;;;;;;3.80;1.30;;;23.00;28.10;;;;;;5053502;28;46546;-60
2022/05/25 13:03:14;;;;;;;2.80;1.00;;;23.10;28.40;;;;;;5053104;28;46393;-60
2022/05/25 13:05:59;;;;;;;3.17;1.30;;;23.30;28.00;;;;;;5052218;28;47074;-60
2022/05/25 13:08:47;;;;;;;3.43;1.57;;;23.50;28.40;;;;;;5050174;28;46587;-60
2022/05/25 13:11:34;;;;;;;3.53;1.20;;;23.60;27.30;;;;;;5048922;28;45904;-62
2022/05/25 13:14:17;;;;;;;3.47;1.10;;;23.70;27.70;;;;;;5054170;28;46384;-61
2022/05/25 13:16:45;;;;;;;4.90;1.10;;;23.90;27.60;;;;;;5049946;28;46982;-62
2022/05/25 13:19:20;;;;;;;6.67;1.13;;;24.20;27.40;;;;;;5051527;28;45926;-62
2022/05/25 13:22:28;;;;;;;2.30;1.10;;;24.20;26.90;;;;;;5049454;28;46455;-60
2022/05/25 13:25:22;;;;;;;3.20;1.00;;;24.10;27.20;;;;;;5051659;28;46616;-63
2022/05/25 13:28:15;;;;;;;3.47;1.10;;;24.00;27.40;;;;;;5048294;28;47318;-61
2022/05/25 13:30:43;;;;;;;2.50;1.10;;;23.80;27.70;;;;;;5047905;28;46360;-62
2022/05/25 13:33:24;;;;;;;4.80;1.53;;;23.50;28.40;;;;;;5054259;28;46475;-62
2022/05/25 13:36:05;;;;;;;3.13;1.10;;;23.40;28.10;;;;;;5049369;28;46465;-63